Terminal Aerodrome Forecast
Issued by NWS Wakefield, VA

Home | Current Version | Previous Version | Text Only | Print | Product List | Glossary On
Versions: 1 2 3 4 5 6 7 8 9 10 11 12 13 14 15 16 17 18 19
000
FTUS41 KAKQ 292338
TAFORF
TAF
KORF 292338Z 3000/3024 24006KT P6SM SCT250
     FM300900 22011KT P6SM OVC100
     FM301300 23015KT P6SM -RA OVC030
     FM301700 24015G20KT P6SM SCT030=

USA.gov is the U.S. government's official web portal to all federal, state and local government web resources and services.